Time;durP1;ratioP1;P1;durP2;ratioP2;P2;SDS_P1;SDS_P2;PMS_P1;PMS_P2;Temp;Humidity;BMP_temperature;BMP_pressure;BME280_temperature;BME280_humidity;BME280_pressure;Samples;Min_cycle;Max_cycle;Signal;HPM_P1;HPM_P2
2023/09/25 00:00:20;;;;;;;3.17;1.40;;;13.60;99.90;;;;;;4978569;28;21809;-78
2023/09/25 00:02:46;;;;;;;2.60;1.50;;;13.60;99.90;;;;;;4978618;28;20471;-78
2023/09/25 00:05:16;;;;;;;3.10;1.53;;;13.60;99.90;;;;;;4981357;28;20526;-78
2023/09/25 00:07:43;;;;;;;2.97;1.50;;;13.60;99.90;;;;;;4977928;28;20470;-79
2023/09/25 00:10:11;;;;;;;3.33;1.73;;;13.60;99.90;;;;;;4977829;28;20492;-77
2023/09/25 00:12:39;;;;;;;2.83;1.50;;;13.60;99.90;;;;;;4978347;28;20471;-78
2023/09/25 00:15:06;;;;;;;2.83;1.83;;;13.50;99.90;;;;;;4977138;28;20462;-79
2023/09/25 00:17:33;;;;;;;2.90;1.90;;;13.50;99.90;;;;;;4977129;28;20487;-78
2023/09/25 00:20:00;;;;;;;2.67;1.37;;;13.50;99.90;;;;;;4977737;28;20480;-78
2023/09/25 00:22:27;;;;;;;2.00;1.37;;;13.50;99.90;;;;;;4978009;28;20452;-78
2023/09/25 00:24:54;;;;;;;2.57;1.30;;;13.50;99.90;;;;;;4979611;28;20455;-78
2023/09/25 00:27:21;;;;;;;2.53;1.20;;;13.40;99.90;;;;;;4984420;28;20531;-78
2023/09/25 00:29:49;;;;;;;2.77;1.40;;;13.40;99.90;;;;;;4985350;28;21114;-79
2023/09/25 00:32:16;;;;;;;2.27;1.20;;;13.30;99.90;;;;;;4977332;28;20455;-77
2023/09/25 00:34:43;;;;;;;3.70;1.40;;;13.40;99.90;;;;;;4981014;28;20474;-78
2023/09/25 00:37:10;;;;;;;3.43;1.37;;;13.30;99.90;;;;;;4983831;28;20571;-78
2023/09/25 00:39:37;;;;;;;4.23;1.43;;;13.20;99.90;;;;;;4986166;28;20579;-77
2023/09/25 00:42:05;;;;;;;2.03;1.10;;;13.30;99.90;;;;;;4980238;28;20471;-78
2023/09/25 00:44:32;;;;;;;2.10;1.40;;;13.30;99.90;;;;;;4980626;28;20491;-77
2023/09/25 00:47:00;;;;;;;2.03;1.27;;;13.30;99.90;;;;;;4980932;28;20461;-78
2023/09/25 00:49:28;;;;;;;3.77;1.70;;;13.30;99.90;;;;;;4981032;28;20483;-78
2023/09/25 00:51:55;;;;;;;2.03;1.20;;;13.30;99.90;;;;;;4980948;28;20540;-78
2023/09/25 00:54:23;;;;;;;3.07;1.20;;;13.30;99.90;;;;;;4984934;28;20474;-79
2023/09/25 00:56:50;;;;;;;2.40;1.10;;;13.40;99.90;;;;;;4984205;28;20463;-79
2023/09/25 00:59:18;;;;;;;1.60;1.07;;;13.30;99.90;;;;;;4987781;28;20478;-79
2023/09/25 01:01:45;;;;;;;2.13;1.37;;;13.40;99.90;;;;;;4979995;28;20457;-78
2023/09/25 01:04:13;;;;;;;2.10;1.37;;;13.40;99.90;;;;;;4980412;28;21026;-77
2023/09/25 01:06:43;;;;;;;2.20;1.10;;;13.50;99.90;;;;;;4979191;28;20529;-79
2023/09/25 01:09:12;;;;;;;2.67;1.40;;;13.50;99.90;;;;;;4974746;28;20577;-78
2023/09/25 01:11:39;;;;;;;1.90;1.10;;;13.60;99.90;;;;;;4980029;28;20468;-79
2023/09/25 01:14:06;;;;;;;1.80;1.17;;;13.60;99.90;;;;;;4980456;28;20462;-78
2023/09/25 01:16:33;;;;;;;2.07;1.20;;;13.60;99.90;;;;;;4979399;28;20552;-79
2023/09/25 01:19:00;;;;;;;2.20;1.20;;;13.60;99.90;;;;;;4977920;28;20519;-77
2023/09/25 01:21:30;;;;;;;2.57;1.60;;;13.60;99.90;;;;;;4980232;28;20466;-79
2023/09/25 01:23:58;;;;;;;4.60;1.20;;;13.60;99.90;;;;;;4980401;28;20554;-79
2023/09/25 01:26:25;;;;;;;2.40;1.40;;;13.60;99.90;;;;;;4978564;28;20459;-78
2023/09/25 01:28:52;;;;;;;4.13;1.47;;;13.50;99.90;;;;;;4972418;28;20690;-78
2023/09/25 01:31:18;;;;;;;2.00;1.13;;;13.50;99.90;;;;;;4980543;28;20484;-79
2023/09/25 01:33:45;;;;;;;3.40;2.03;;;13.40;99.90;;;;;;4980282;28;20459;-79
2023/09/25 01:36:12;;;;;;;2.50;1.40;;;13.40;99.90;;;;;;4978952;28;20467;-79
2023/09/25 01:38:39;;;;;;;2.90;1.20;;;13.30;99.90;;;;;;4979185;28;20529;-77
2023/09/25 01:41:07;;;;;;;1.80;1.17;;;13.30;99.90;;;;;;4975055;28;20545;-78
2023/09/25 01:43:34;;;;;;;1.90;1.10;;;13.30;99.90;;;;;;4979302;28;20471;-77
2023/09/25 01:46:01;;;;;;;2.37;1.70;;;13.20;99.90;;;;;;4980099;28;20460;-78
2023/09/25 01:48:27;;;;;;;2.07;1.13;;;13.20;99.90;;;;;;4979548;28;20827;-77
2023/09/25 01:50:54;;;;;;;2.57;1.10;;;13.20;99.90;;;;;;4979549;28;20481;-77
2023/09/25 01:53:21;;;;;;;2.63;1.00;;;13.20;99.90;;;;;;4978923;28;20455;-78
2023/09/25 01:55:49;;;;;;;2.03;1.10;;;13.10;99.90;;;;;;4979455;28;20497;-79
2023/09/25 01:58:17;;;;;;;2.60;1.10;;;13.10;99.90;;;;;;4978736;28;20492;-78
2023/09/25 02:00:44;;;;;;;1.90;1.23;;;13.10;99.90;;;;;;4978738;28;20545;-78
2023/09/25 02:03:11;;;;;;;2.43;1.30;;;13.10;99.90;;;;;;4978558;28;20452;-78
2023/09/25 02:05:38;;;;;;;3.60;1.30;;;13.00;99.90;;;;;;4978835;28;20840;-79
2023/09/25 02:08:05;;;;;;;1.60;1.10;;;13.00;99.90;;;;;;4978389;28;20457;-78
2023/09/25 02:10:35;;;;;;;2.40;1.30;;;13.00;99.90;;;;;;4978461;28;20504;-78
2023/09/25 02:13:01;;;;;;;2.60;1.10;;;13.00;99.90;;;;;;4978507;28;20461;-78
2023/09/25 02:15:29;;;;;;;2.27;1.27;;;13.00;99.90;;;;;;4970458;28;20464;-78
2023/09/25 02:17:56;;;;;;;1.80;0.90;;;13.00;99.90;;;;;;4978184;28;21021;-77
2023/09/25 02:20:23;;;;;;;2.10;1.30;;;12.90;99.90;;;;;;4977450;28;20476;-78
2023/09/25 02:22:51;;;;;;;2.40;1.17;;;13.00;99.90;;;;;;4971076;28;20459;-77
2023/09/25 02:25:18;;;;;;;2.83;1.40;;;12.90;99.90;;;;;;4979197;28;20454;-78
2023/09/25 02:27:45;;;;;;;2.73;1.40;;;12.90;99.90;;;;;;4977805;28;20545;-78
2023/09/25 02:30:12;;;;;;;1.70;1.20;;;12.80;99.90;;;;;;4978171;28;20500;-77
2023/09/25 02:32:41;;;;;;;2.00;1.50;;;12.90;99.90;;;;;;4977944;28;20542;-79
2023/09/25 02:35:09;;;;;;;1.93;1.13;;;12.80;99.90;;;;;;4978100;28;20526;-78
2023/09/25 02:37:37;;;;;;;2.80;1.17;;;12.80;99.90;;;;;;4977998;28;20487;-78
2023/09/25 02:40:05;;;;;;;2.10;1.40;;;12.80;99.90;;;;;;4978204;28;20487;-78
2023/09/25 02:42:31;;;;;;;2.10;1.10;;;12.70;99.90;;;;;;4977516;28;20466;-77
2023/09/25 02:45:01;;;;;;;1.97;1.20;;;12.70;99.90;;;;;;4978292;28;20470;-78
2023/09/25 02:47:28;;;;;;;2.37;1.10;;;12.70;99.90;;;;;;4973616;28;20467;-78
2023/09/25 02:49:56;;;;;;;2.40;1.20;;;12.70;99.90;;;;;;4978033;28;21075;-78
2023/09/25 02:52:23;;;;;;;2.70;1.50;;;12.70;99.90;;;;;;4978423;28;20472;-79
2023/09/25 02:54:50;;;;;;;2.27;1.30;;;12.70;99.90;;;;;;4970347;28;20458;-78
2023/09/25 02:57:16;;;;;;;1.90;1.30;;;12.70;99.90;;;;;;4977472;28;20471;-78
2023/09/25 02:59:43;;;;;;;2.73;1.30;;;12.60;99.90;;;;;;4977135;28;20476;-78
2023/09/25 03:02:10;;;;;;;1.70;1.20;;;12.60;99.90;;;;;;4977244;28;21008;-78
2023/09/25 03:04:38;;;;;;;2.77;1.40;;;12.60;99.90;;;;;;4977201;28;20462;-78
2023/09/25 03:07:06;;;;;;;2.20;1.20;;;12.60;99.90;;;;;;4977224;28;20448;-78
2023/09/25 03:09:32;;;;;;;1.90;1.10;;;12.70;99.90;;;;;;4976696;28;20470;-80
2023/09/25 03:12:01;;;;;;;3.07;1.33;;;12.70;99.90;;;;;;4975230;28;20472;-78
2023/09/25 03:14:27;;;;;;;1.93;1.13;;;12.70;99.90;;;;;;4975224;28;20821;-78
2023/09/25 03:16:54;;;;;;;2.20;1.37;;;12.60;99.90;;;;;;4975184;28;20473;-77
2023/09/25 03:19:21;;;;;;;3.17;1.30;;;12.60;99.90;;;;;;4975014;28;20499;-79
2023/09/25 03:21:48;;;;;;;2.97;1.20;;;12.60;99.90;;;;;;4975452;28;20469;-79
2023/09/25 03:24:16;;;;;;;2.07;1.20;;;12.60;99.90;;;;;;4976050;28;20493;-79
2023/09/25 03:26:42;;;;;;;3.27;1.43;;;12.50;99.90;;;;;;4967643;28;20454;-79
2023/09/25 03:29:09;;;;;;;2.53;1.23;;;12.50;99.90;;;;;;4976433;28;21020;-80
2023/09/25 03:31:36;;;;;;;2.40;1.23;;;12.50;99.90;;;;;;4976450;28;20973;-79
2023/09/25 03:34:03;;;;;;;3.13;1.27;;;12.50;99.90;;;;;;4976303;28;20459;-80
2023/09/25 03:36:29;;;;;;;3.20;1.47;;;12.50;99.90;;;;;;4974010;28;20859;-78
2023/09/25 03:38:56;;;;;;;2.07;1.20;;;12.50;99.90;;;;;;4975900;28;20499;-79
2023/09/25 03:41:25;;;;;;;3.40;1.50;;;12.40;99.90;;;;;;4975935;28;20463;-79
2023/09/25 03:43:51;;;;;;;1.90;1.20;;;12.50;99.90;;;;;;4976446;28;20450;-79
2023/09/25 03:46:18;;;;;;;1.90;1.40;;;12.40;99.90;;;;;;4977660;28;20450;-79
2023/09/25 03:48:45;;;;;;;3.10;1.33;;;12.40;99.90;;;;;;4977757;28;20460;-78
2023/09/25 03:51:12;;;;;;;3.10;1.60;;;12.40;99.90;;;;;;4979617;28;20510;-78
2023/09/25 03:53:39;;;;;;;3.20;1.60;;;12.40;99.90;;;;;;4980647;28;20459;-78
2023/09/25 03:56:06;;;;;;;2.97;1.47;;;12.50;99.90;;;;;;4980755;28;20468;-77
2023/09/25 03:58:34;;;;;;;3.03;1.87;;;12.40;99.90;;;;;;4979763;28;20562;-78
2023/09/25 04:01:00;;;;;;;2.33;1.37;;;12.50;99.90;;;;;;4984292;28;20490;-78
2023/09/25 04:03:27;;;;;;;1.90;1.30;;;12.50;99.90;;;;;;4984145;28;20468;-79
2023/09/25 04:05:54;;;;;;;4.20;1.33;;;12.50;99.90;;;;;;4984526;28;20840;-78
2023/09/25 04:08:21;;;;;;;2.60;1.20;;;12.50;99.90;;;;;;4984310;28;20872;-77
2023/09/25 04:10:48;;;;;;;2.47;1.30;;;12.50;99.90;;;;;;4984238;28;20515;-78
2023/09/25 04:13:16;;;;;;;3.03;1.60;;;12.50;99.90;;;;;;4985217;28;20534;-79
2023/09/25 04:15:44;;;;;;;2.00;1.10;;;12.50;99.90;;;;;;4983720;28;20870;-78
2023/09/25 04:18:12;;;;;;;2.13;1.53;;;12.60;99.90;;;;;;4983929;28;20499;-78
2023/09/25 04:20:39;;;;;;;2.83;1.10;;;12.50;99.90;;;;;;4983640;28;20479;-78
2023/09/25 04:23:06;;;;;;;2.10;1.30;;;12.50;99.90;;;;;;4992629;28;20463;-78
2023/09/25 04:25:32;;;;;;;3.00;1.47;;;12.50;99.90;;;;;;4982449;28;20883;-79
2023/09/25 04:28:00;;;;;;;2.80;1.37;;;12.50;99.90;;;;;;4983306;28;20477;-78
2023/09/25 04:30:27;;;;;;;3.27;1.60;;;12.60;99.90;;;;;;4984021;28;20490;-78
2023/09/25 04:32:56;;;;;;;2.33;1.10;;;12.60;99.90;;;;;;4983147;28;20476;-78
2023/09/25 04:35:24;;;;;;;1.90;1.30;;;12.60;99.90;;;;;;4984092;28;20477;-78
2023/09/25 04:37:51;;;;;;;2.13;1.70;;;12.70;99.90;;;;;;4970001;28;20992;-79
2023/09/25 04:40:30;;;;;;;2.23;1.57;;;12.70;99.90;;;;;;4984336;28;20490;-79
2023/09/25 04:42:58;;;;;;;2.40;1.40;;;12.70;99.90;;;;;;4983495;28;20462;-79
2023/09/25 04:45:25;;;;;;;1.90;1.30;;;12.70;99.90;;;;;;4983698;28;20466;-79
2023/09/25 04:47:52;;;;;;;2.43;1.17;;;12.70;99.90;;;;;;4983416;28;21022;-79
2023/09/25 04:50:21;;;;;;;2.43;1.40;;;12.70;99.90;;;;;;4983098;28;20484;-78
2023/09/25 04:52:49;;;;;;;2.67;1.30;;;12.70;99.90;;;;;;4979864;28;20546;-78
2023/09/25 04:55:16;;;;;;;2.77;1.37;;;12.70;99.90;;;;;;4984154;28;20466;-78
2023/09/25 04:57:46;;;;;;;2.53;1.60;;;12.70;99.90;;;;;;4982862;28;20539;-78
2023/09/25 05:00:16;;;;;;;3.20;1.30;;;12.70;99.90;;;;;;4982911;28;20494;-77
2023/09/25 05:02:45;;;;;;;2.43;1.30;;;12.70;99.90;;;;;;4984815;28;20473;-78
2023/09/25 05:05:12;;;;;;;2.63;1.70;;;12.70;99.90;;;;;;4986414;28;20484;-78
2023/09/25 05:07:41;;;;;;;4.17;1.50;;;12.70;99.90;;;;;;4983459;28;20475;-79
2023/09/25 05:10:09;;;;;;;2.63;1.40;;;12.70;99.90;;;;;;4971076;28;21107;-79
2023/09/25 05:12:37;;;;;;;2.00;1.30;;;12.60;99.90;;;;;;4972411;28;20495;-80
2023/09/25 05:15:07;;;;;;;2.87;1.70;;;12.70;99.90;;;;;;4977650;28;20905;-79
2023/09/25 05:17:34;;;;;;;2.00;1.30;;;12.70;99.90;;;;;;4977472;28;20465;-79
2023/09/25 05:20:01;;;;;;;2.63;1.83;;;12.70;99.90;;;;;;4979513;28;20993;-79
2023/09/25 05:22:28;;;;;;;3.47;1.37;;;12.60;99.90;;;;;;4978828;28;20472;-79
2023/09/25 05:24:56;;;;;;;2.67;1.40;;;12.70;99.90;;;;;;4978291;28;20489;-79
2023/09/25 05:27:23;;;;;;;2.67;1.57;;;12.70;99.90;;;;;;4981830;28;20471;-79
2023/09/25 05:29:50;;;;;;;2.57;1.40;;;12.70;99.90;;;;;;4982347;28;20478;-78
2023/09/25 05:32:17;;;;;;;2.83;1.60;;;12.70;99.90;;;;;;4982193;28;20465;-79
2023/09/25 05:34:44;;;;;;;3.10;1.63;;;12.70;99.90;;;;;;4982089;28;20463;-79
2023/09/25 05:37:10;;;;;;;2.40;1.57;;;12.70;99.90;;;;;;4981672;28;20542;-78
2023/09/25 05:39:37;;;;;;;2.27;1.50;;;12.70;99.90;;;;;;4981662;28;21088;-79
2023/09/25 05:42:06;;;;;;;2.60;1.43;;;12.70;99.90;;;;;;4983024;28;21005;-79
2023/09/25 05:44:33;;;;;;;2.10;1.60;;;12.80;99.90;;;;;;4975888;28;20466;-79
2023/09/25 05:46:59;;;;;;;3.73;1.60;;;12.80;99.90;;;;;;4983860;28;20485;-79
2023/09/25 05:49:26;;;;;;;2.17;1.37;;;12.80;99.90;;;;;;4983915;28;20485;-79
2023/09/25 05:51:54;;;;;;;2.90;1.67;;;12.80;99.90;;;;;;4984059;28;20519;-79
2023/09/25 05:54:21;;;;;;;2.87;1.53;;;12.80;99.90;;;;;;4983215;28;20495;-79
2023/09/25 05:56:47;;;;;;;3.60;1.60;;;12.80;99.90;;;;;;4982614;28;20469;-79
2023/09/25 05:59:16;;;;;;;2.77;1.80;;;12.90;99.90;;;;;;4981828;28;20500;-79
2023/09/25 06:01:43;;;;;;;3.50;1.47;;;12.90;99.90;;;;;;4982402;28;20543;-79
2023/09/25 06:04:10;;;;;;;3.07;1.60;;;12.90;99.90;;;;;;4982726;28;20456;-80
2023/09/25 06:06:37;;;;;;;2.17;1.37;;;13.00;99.90;;;;;;4979968;28;20826;-79
2023/09/25 06:09:08;;;;;;;2.13;1.40;;;13.00;99.90;;;;;;4980133;28;20546;-79
2023/09/25 06:11:37;;;;;;;2.10;1.50;;;13.00;99.90;;;;;;4977117;28;20476;-79
2023/09/25 06:14:05;;;;;;;2.70;2.00;;;13.00;99.90;;;;;;4979694;28;22177;-78
2023/09/25 06:16:33;;;;;;;2.30;1.60;;;13.10;99.90;;;;;;4982276;28;20458;-77
2023/09/25 06:19:00;;;;;;;2.03;1.37;;;13.10;99.90;;;;;;4983624;28;20500;-79
2023/09/25 06:21:27;;;;;;;3.50;1.77;;;13.20;99.90;;;;;;4990488;28;20518;-79
2023/09/25 06:23:54;;;;;;;2.97;1.50;;;13.20;99.90;;;;;;4992492;28;20467;-78
2023/09/25 06:26:21;;;;;;;3.00;1.53;;;13.30;99.90;;;;;;4990403;28;20508;-78
2023/09/25 06:28:48;;;;;;;2.43;1.30;;;13.30;99.90;;;;;;4985806;28;20452;-78
2023/09/25 06:31:16;;;;;;;3.13;1.33;;;13.40;99.90;;;;;;4982846;28;20538;-78
2023/09/25 06:33:45;;;;;;;3.40;2.00;;;13.50;99.90;;;;;;4977444;28;20452;-79
2023/09/25 06:36:12;;;;;;;2.20;1.43;;;13.50;99.90;;;;;;4974003;28;20459;-79
2023/09/25 06:38:39;;;;;;;2.13;1.53;;;13.50;99.90;;;;;;4970860;28;20538;-79
2023/09/25 06:41:05;;;;;;;2.83;1.90;;;13.70;99.90;;;;;;4978745;28;20828;-79
2023/09/25 06:43:32;;;;;;;3.50;1.50;;;13.70;99.90;;;;;;4976639;28;20463;-79
2023/09/25 06:45:59;;;;;;;3.50;1.57;;;13.80;99.90;;;;;;4977208;28;20959;-79
2023/09/25 06:48:26;;;;;;;3.23;1.60;;;13.90;99.90;;;;;;4976526;28;20840;-79
2023/09/25 06:50:54;;;;;;;6.70;2.07;;;14.00;99.90;;;;;;4974619;28;20482;-79
2023/09/25 06:53:21;;;;;;;4.00;1.70;;;14.00;99.90;;;;;;4976696;28;20461;-79
2023/09/25 06:55:48;;;;;;;3.87;1.93;;;14.10;99.90;;;;;;4975812;28;20461;-78
2023/09/25 06:58:15;;;;;;;2.77;1.67;;;14.20;99.90;;;;;;4974447;28;20518;-78
2023/09/25 07:00:44;;;;;;;3.07;1.50;;;14.30;99.90;;;;;;4980430;28;20505;-78
2023/09/25 07:03:11;;;;;;;2.70;1.63;;;14.30;99.90;;;;;;4974635;28;20523;-77
2023/09/25 07:05:38;;;;;;;2.67;1.73;;;14.40;99.90;;;;;;4975149;28;20477;-77
2023/09/25 07:08:07;;;;;;;2.83;1.53;;;14.60;99.90;;;;;;4973766;28;21004;-76
2023/09/25 07:10:33;;;;;;;3.57;1.60;;;14.70;99.90;;;;;;4976006;28;20477;-77
2023/09/25 07:13:00;;;;;;;3.40;1.60;;;14.70;99.90;;;;;;4969943;28;20464;-78
2023/09/25 07:15:27;;;;;;;3.93;1.60;;;14.80;99.90;;;;;;4973883;28;20489;-78
2023/09/25 07:17:57;;;;;;;4.07;1.90;;;14.80;99.90;;;;;;4976966;28;20459;-77
2023/09/25 07:20:25;;;;;;;5.40;1.83;;;14.90;99.90;;;;;;4975123;28;20501;-77
2023/09/25 07:22:52;;;;;;;4.67;1.87;;;15.00;99.90;;;;;;4970486;28;20540;-78
2023/09/25 07:25:20;;;;;;;3.93;1.63;;;15.00;99.90;;;;;;4975592;28;20452;-78
2023/09/25 07:27:47;;;;;;;3.07;1.47;;;15.10;99.90;;;;;;4968428;28;20483;-78
2023/09/25 07:30:14;;;;;;;4.23;2.23;;;15.20;99.90;;;;;;4970719;28;20476;-78
2023/09/25 07:32:42;;;;;;;1.93;1.57;;;15.20;99.90;;;;;;4972263;28;20900;-79
2023/09/25 07:35:10;;;;;;;2.40;1.20;;;15.20;99.90;;;;;;4975779;28;20988;-78
2023/09/25 07:37:37;;;;;;;2.10;1.23;;;15.20;99.90;;;;;;4969148;28;20519;-78
2023/09/25 07:40:09;;;;;;;2.73;1.83;;;15.30;99.90;;;;;;4975990;28;20495;-77
2023/09/25 07:42:38;;;;;;;2.70;1.47;;;15.30;99.90;;;;;;4967727;28;20484;-77
2023/09/25 07:45:05;;;;;;;5.00;2.30;;;15.20;99.90;;;;;;4971812;28;20531;-78
2023/09/25 07:47:32;;;;;;;4.30;1.50;;;15.20;99.90;;;;;;4965597;28;20456;-78
2023/09/25 07:49:59;;;;;;;3.20;1.53;;;15.20;99.90;;;;;;4963450;28;20491;-79
2023/09/25 07:52:26;;;;;;;2.07;1.40;;;15.30;99.90;;;;;;4970667;28;20455;-79
2023/09/25 07:54:53;;;;;;;4.73;1.60;;;15.40;99.90;;;;;;4971964;28;20451;-77
2023/09/25 07:57:21;;;;;;;3.00;1.43;;;15.50;99.90;;;;;;4970790;28;20459;-78
2023/09/25 07:59:50;;;;;;;2.97;1.50;;;15.60;99.90;;;;;;4967235;28;20495;-77
2023/09/25 08:02:19;;;;;;;2.20;1.50;;;15.70;99.90;;;;;;4968928;28;20557;-77
2023/09/25 08:04:47;;;;;;;7.00;1.93;;;15.80;99.90;;;;;;4970403;28;20469;-76
2023/09/25 08:07:14;;;;;;;4.90;1.60;;;15.80;99.90;;;;;;4973212;28;20463;-78
2023/09/25 08:09:41;;;;;;;3.50;2.03;;;15.90;99.90;;;;;;4972533;28;20471;-78
2023/09/25 08:12:08;;;;;;;2.77;1.30;;;16.00;99.90;;;;;;4973530;28;20523;-77
2023/09/25 08:14:35;;;;;;;2.07;1.23;;;16.10;99.90;;;;;;4972983;28;20461;-78
2023/09/25 08:17:03;;;;;;;3.07;1.43;;;16.20;99.90;;;;;;4971936;28;20522;-78
2023/09/25 08:19:30;;;;;;;3.17;1.87;;;16.20;99.90;;;;;;4971932;28;20494;-77
2023/09/25 08:21:56;;;;;;;2.10;1.40;;;16.30;99.90;;;;;;4970465;28;20839;-78
2023/09/25 08:24:23;;;;;;;2.57;1.47;;;16.40;99.90;;;;;;4970966;28;20494;-77
2023/09/25 08:26:50;;;;;;;4.70;1.70;;;16.40;99.90;;;;;;4970313;28;20444;-78
2023/09/25 08:29:17;;;;;;;3.60;1.40;;;16.50;99.90;;;;;;4962780;28;20467;-79
2023/09/25 08:31:44;;;;;;;2.80;1.33;;;16.60;99.90;;;;;;4968125;28;20553;-78
2023/09/25 08:34:13;;;;;;;2.80;1.33;;;16.60;99.90;;;;;;4972108;28;20459;-80
2023/09/25 08:36:39;;;;;;;3.70;1.30;;;16.70;99.90;;;;;;4966505;28;20451;-77
2023/09/25 08:39:08;;;;;;;2.50;1.47;;;16.80;99.90;;;;;;4976926;28;20477;-79
2023/09/25 08:41:36;;;;;;;2.60;1.47;;;16.90;99.90;;;;;;4974510;28;20466;-80
2023/09/25 08:44:03;;;;;;;4.63;1.70;;;17.00;99.90;;;;;;4975472;28;20900;-80
2023/09/25 08:46:30;;;;;;;2.60;1.10;;;17.10;99.90;;;;;;4982017;28;20456;-80
2023/09/25 08:48:59;;;;;;;3.60;1.50;;;17.10;99.90;;;;;;4974099;28;20483;-79
2023/09/25 08:51:31;;;;;;;4.77;1.70;;;17.20;99.90;;;;;;4976070;28;20498;-80
2023/09/25 08:53:58;;;;;;;3.40;1.67;;;17.40;99.90;;;;;;4979670;28;20456;-80
2023/09/25 08:56:25;;;;;;;4.60;1.77;;;17.40;99.90;;;;;;4978365;28;20835;-80
2023/09/25 08:58:52;;;;;;;4.00;1.93;;;17.60;99.90;;;;;;4977943;28;20472;-80
2023/09/25 09:01:21;;;;;;;2.80;1.70;;;17.70;99.90;;;;;;4979439;28;20583;-80
2023/09/25 09:03:48;;;;;;;2.90;1.90;;;17.80;99.90;;;;;;4975386;28;20494;-78
2023/09/25 09:06:15;;;;;;;2.73;1.40;;;17.90;99.90;;;;;;4976532;28;20464;-79
2023/09/25 09:08:46;;;;;;;3.13;1.43;;;18.00;99.90;;;;;;4978863;28;20469;-79
2023/09/25 09:11:14;;;;;;;4.10;1.80;;;18.10;99.90;;;;;;4980584;28;20466;-80
2023/09/25 09:13:44;;;;;;;2.80;1.37;;;18.20;99.90;;;;;;4980434;28;20469;-80
2023/09/25 09:16:16;;;;;;;2.67;1.60;;;18.30;99.90;;;;;;4980888;28;20525;-79
2023/09/25 09:18:43;;;;;;;3.57;1.67;;;18.50;99.90;;;;;;4976955;28;20455;-80
2023/09/25 09:21:24;;;;;;;5.10;1.30;;;18.60;99.90;;;;;;4977784;28;20582;-80
2023/09/25 09:23:55;;;;;;;4.60;1.43;;;18.60;99.90;;;;;;4980334;28;21013;-79
2023/09/25 09:26:23;;;;;;;3.03;1.63;;;18.80;99.90;;;;;;4980493;28;20509;-79
2023/09/25 09:28:53;;;;;;;3.70;1.67;;;18.90;99.90;;;;;;4978964;28;20518;-80
2023/09/25 09:31:20;;;;;;;4.03;1.40;;;19.10;99.90;;;;;;4980673;28;20455;-81
2023/09/25 09:33:48;;;;;;;2.80;1.93;;;19.30;99.90;;;;;;4977756;28;20626;-80
2023/09/25 09:36:15;;;;;;;3.90;1.33;;;19.50;99.90;;;;;;4976955;28;20461;-79
2023/09/25 09:38:43;;;;;;;3.93;1.40;;;19.70;99.90;;;;;;4977265;28;20478;-80
2023/09/25 09:41:13;;;;;;;2.70;1.07;;;19.80;99.90;;;;;;4976544;28;20498;-80
2023/09/25 09:43:41;;;;;;;6.60;1.47;;;19.90;99.90;;;;;;4975695;28;21147;-81
2023/09/25 09:46:12;;;;;;;2.30;1.40;;;19.90;99.90;;;;;;4976753;28;21138;-79
2023/09/25 09:48:40;;;;;;;4.30;1.70;;;20.20;99.90;;;;;;4975612;28;20461;-81
2023/09/25 09:51:12;;;;;;;3.10;1.50;;;20.40;99.90;;;;;;4974478;28;20546;-80
2023/09/25 09:53:39;;;;;;;2.57;1.63;;;20.50;99.90;;;;;;4975936;28;20459;-79
2023/09/25 09:56:08;;;;;;;3.33;1.40;;;20.70;99.90;;;;;;4968149;28;20465;-80
2023/09/25 09:58:38;;;;;;;3.60;1.40;;;20.80;99.90;;;;;;4970380;28;20462;-79
2023/09/25 10:01:06;;;;;;;4.13;1.37;;;21.00;99.90;;;;;;4967850;28;20928;-79
2023/09/25 10:03:33;;;;;;;2.00;1.20;;;21.20;99.90;;;;;;4976031;28;20456;-78
2023/09/25 10:06:00;;;;;;;3.53;1.10;;;21.50;99.90;;;;;;4972627;28;20462;-80
2023/09/25 10:08:28;;;;;;;2.90;1.30;;;21.70;99.90;;;;;;4974304;28;20454;-79
2023/09/25 10:11:15;;;;;;;2.20;1.10;;;22.00;99.90;;;;;;4971658;28;20479;-80
2023/09/25 10:13:43;;;;;;;4.20;1.20;;;22.30;99.90;;;;;;4975887;28;20478;-80
2023/09/25 10:16:12;;;;;;;2.27;1.20;;;22.50;99.90;;;;;;4967332;28;21053;-78
2023/09/25 10:18:39;;;;;;;2.50;1.20;;;22.80;99.90;;;;;;4973297;28;20487;-78
2023/09/25 10:21:13;;;;;;;2.73;1.30;;;23.00;99.90;;;;;;4973292;28;20863;-78
2023/09/25 10:23:43;;;;;;;3.10;1.10;;;23.40;99.90;;;;;;4978976;28;20489;-78
2023/09/25 10:26:17;;;;;;;1.97;1.07;;;23.50;99.90;;;;;;4976403;28;20897;-77
2023/09/25 10:28:56;;;;;;;2.80;1.60;;;23.90;99.90;;;;;;4975375;28;20556;-77
2023/09/25 10:31:25;;;;;;;2.40;1.17;;;24.40;99.90;;;;;;4972510;28;20577;-79
2023/09/25 10:33:57;;;;;;;4.20;1.50;;;24.50;99.90;;;;;;4964604;28;20439;-79
2023/09/25 10:36:36;;;;;;;2.20;1.20;;;24.70;99.90;;;;;;4974477;28;20453;-79
2023/09/25 10:39:06;;;;;;;4.07;1.10;;;24.70;99.90;;;;;;4969365;28;21158;-79
2023/09/25 10:41:33;;;;;;;2.30;1.20;;;24.90;99.90;;;;;;4973795;28;20571;-79
2023/09/25 10:44:01;;;;;;;2.40;1.10;;;24.90;99.90;;;;;;4977748;28;20465;-78
2023/09/25 10:46:28;;;;;;;2.00;1.17;;;25.20;99.90;;;;;;4975195;28;21669;-79
2023/09/25 10:48:55;;;;;;;2.17;1.10;;;25.30;99.90;;;;;;4975532;28;20471;-79
2023/09/25 10:51:22;;;;;;;3.40;1.50;;;25.40;99.90;;;;;;4975858;28;20455;-78
2023/09/25 10:53:49;;;;;;;3.43;1.33;;;25.40;99.90;;;;;;4974853;28;20463;-78
2023/09/25 10:56:16;;;;;;;3.80;1.20;;;25.20;99.90;;;;;;4975052;28;20447;-78
2023/09/25 10:58:47;;;;;;;2.60;1.10;;;25.30;99.90;;;;;;4980650;28;20523;-78
2023/09/25 11:01:15;;;;;;;2.50;1.20;;;25.30;99.90;;;;;;4970595;28;20491;-79
2023/09/25 11:03:42;;;;;;;2.10;1.10;;;25.20;99.90;;;;;;4964132;28;20981;-77
2023/09/25 11:06:10;;;;;;;2.33;1.30;;;25.20;99.90;;;;;;4967403;28;20471;-78
2023/09/25 11:08:36;;;;;;;2.37;1.30;;;25.00;99.90;;;;;;4971037;28;20451;-79
2023/09/25 11:11:03;;;;;;;2.63;1.47;;;24.90;99.00;;;;;;4975326;28;20859;-79
2023/09/25 11:13:30;;;;;;;3.00;1.20;;;25.10;99.90;;;;;;4967353;28;20459;-79
2023/09/25 11:16:00;;;;;;;3.20;1.37;;;25.20;99.90;;;;;;4968695;28;20450;-78
2023/09/25 11:18:28;;;;;;;2.57;1.50;;;25.10;99.60;;;;;;4973619;28;20462;-78
2023/09/25 11:20:57;;;;;;;1.73;1.00;;;24.90;99.90;;;;;;4974745;28;20573;-79
2023/09/25 11:23:24;;;;;;;2.77;1.20;;;25.10;99.90;;;;;;4967544;28;20462;-79
2023/09/25 11:25:54;;;;;;;2.63;1.27;;;25.20;99.90;;;;;;4961245;28;20459;-79
2023/09/25 11:28:22;;;;;;;2.57;1.27;;;25.20;96.00;;;;;;4968789;28;20467;-79
2023/09/25 11:30:50;;;;;;;2.67;1.07;;;25.30;95.10;;;;;;4974401;28;20559;-79
2023/09/25 11:33:18;;;;;;;2.40;1.60;;;25.50;93.50;;;;;;4967274;28;20464;-79
2023/09/25 11:35:47;;;;;;;2.87;1.23;;;25.50;91.80;;;;;;4966489;28;20455;-78
2023/09/25 11:38:20;;;;;;;2.00;1.00;;;25.60;95.40;;;;;;4972505;28;20463;-78
2023/09/25 11:40:47;;;;;;;4.90;1.27;;;25.70;97.50;;;;;;4971548;28;20566;-79
2023/09/25 11:43:14;;;;;;;4.03;1.50;;;25.50;99.90;;;;;;4972425;28;21017;-77
2023/09/25 11:45:41;;;;;;;4.10;1.30;;;25.80;94.40;;;;;;4967737;28;20469;-79
2023/09/25 11:48:10;;;;;;;3.27;1.30;;;25.60;99.90;;;;;;4962872;28;20468;-79
2023/09/25 11:50:37;;;;;;;2.10;1.10;;;25.80;99.90;;;;;;4971927;28;20867;-80
2023/09/25 11:53:06;;;;;;;1.90;1.00;;;25.80;99.90;;;;;;4971114;28;20772;-80
2023/09/25 11:55:33;;;;;;;2.10;1.00;;;25.80;97.50;;;;;;4969986;28;20513;-78
2023/09/25 11:58:00;;;;;;;2.30;1.37;;;25.60;99.90;;;;;;4967258;28;20459;-79
2023/09/25 12:00:27;;;;;;;1.90;1.00;;;25.70;99.90;;;;;;4960232;28;20498;-79
2023/09/25 12:02:55;;;;;;;1.90;1.13;;;26.00;99.20;;;;;;4968952;28;20478;-77
2023/09/25 12:05:22;;;;;;;2.00;1.03;;;26.20;99.90;;;;;;4968012;28;20572;-79
2023/09/25 12:07:49;;;;;;;2.27;0.97;;;26.40;99.90;;;;;;4970928;28;21014;-78
2023/09/25 12:10:17;;;;;;;2.50;1.30;;;26.20;94.60;;;;;;4969973;28;20515;-79
2023/09/25 12:12:45;;;;;;;3.73;1.20;;;25.80;97.50;;;;;;4973858;28;20547;-80
2023/09/25 12:15:13;;;;;;;2.87;1.47;;;26.00;96.60;;;;;;4967751;28;20468;-79
2023/09/25 12:17:40;;;;;;;2.00;1.10;;;26.10;93.80;;;;;;4966377;28;20452;-80
2023/09/25 12:20:12;;;;;;;3.33;1.40;;;26.00;92.20;;;;;;4967131;28;20556;-81
2023/09/25 12:22:40;;;;;;;2.47;1.47;;;26.20;94.60;;;;;;4978112;28;20519;-79
2023/09/25 12:25:09;;;;;;;2.40;1.10;;;26.30;99.90;;;;;;4976208;28;20455;-80
2023/09/25 12:27:37;;;;;;;2.33;1.30;;;26.20;98.60;;;;;;4980087;28;20486;-79
2023/09/25 12:30:07;;;;;;;2.27;1.50;;;26.20;96.90;;;;;;4967671;28;20850;-80
2023/09/25 12:32:34;;;;;;;4.77;1.13;;;26.20;99.90;;;;;;4970439;28;20463;-79
2023/09/25 12:35:00;;;;;;;3.30;1.23;;;26.10;99.90;;;;;;4965420;28;20490;-80
2023/09/25 12:37:28;;;;;;;2.47;1.00;;;26.50;99.70;;;;;;4977482;28;20451;-79
2023/09/25 12:39:55;;;;;;;2.27;1.60;;;26.60;98.10;;;;;;4972601;28;20853;-79
2023/09/25 12:42:22;;;;;;;2.47;1.37;;;26.70;99.90;;;;;;4972122;28;20880;-80
2023/09/25 12:44:50;;;;;;;2.30;1.40;;;26.80;99.90;;;;;;4969724;28;20546;-80
2023/09/25 12:47:18;;;;;;;2.33;1.03;;;26.70;92.80;;;;;;4975224;28;20447;-80
2023/09/25 12:49:45;;;;;;;3.50;1.10;;;26.60;99.90;;;;;;4976173;28;20476;-79